Etusivu
METAR-TAF:

METAR-TAF

Lentoasemat :

Castres, Ranska

Leveyspiiri: 43-33-25N, Pituuspiiri: 2-17-21E, korkeus merenpinnasta: 239 m

Tämänhetkinen sää

Tämä raportti tehtiin 15 minuuttia sitten, kello 22.00 UTC
Tuuli 8 kn lännestä
Lämpötila 4°C
Kosteus 87%
Ilmanpaine 1019 hPa
Näkyvyys 10 km tai enemmän
Pilvistä 4400 ft:n korkeudessa

METAR: LFCK 182200Z AUTO 28008KT 9999 OVC044 04/02 Q1019 TEMPO BKN012

Aika: 23:15 (22:15 UTC)

Sääennuste

Tämä raportti tehtiin 5 tuntia ja 15 minuuttia sitten, kello 17.00 UTC
Ennuste voimassa 18. päivästä klo 18 UTC - 19. päivään klo 03 UTC
Tuuli 9 kn luoteesta
Näkyvyys 10 km tai enemmän
Hajanaisia pilviä 3000 ft:n korkeudessa
Hajonneita pilviä 4500 ft:n korkeudessa
Ajoittain
18. päivästä klo 20 UTC - 19. päivään klo 03 UTC
Hajonneita pilviä 1200 ft:n korkeudessa

TAF: LFCK 181700Z 1818/1903 31009KT 9999 SCT030 BKN045 TEMPO 1820/1903 BKN012

Säähavainnot ja -ennusteet yli 4000 lentoasemalta (METAR- ja TAF-raportit).

Käytössä olevat sääasemat on merkitty karttaan keltaisilla ja punaisilla pisteillä.

Aseta hiiri pisteen päälle nähdäksesi sääaseman nimen.

Klikkaa sitten nähdäksesi säähavainnot ja -ennusteet.

Kartan vaihtaminen: klikkaa mustalla rastilla varustettuja vihreitä pisteitä, niin voit zoomata sisään; viivalla varustettua vihreää pistettä, niin voit zoomata ulos tai vihreitä nuolia, niin pääset viereisille kartoille.


METAR-TAF: